createdAt,value
2019-03-08T00:01:22.734Z,2.35
2019-03-08T00:03:52.373Z,2.05
2019-03-08T00:06:21.792Z,2.30
2019-03-08T00:08:51.289Z,1.90
2019-03-08T00:11:20.721Z,2.20
2019-03-08T00:13:50.192Z,2.15
2019-03-08T00:16:19.628Z,2.33
2019-03-08T00:18:49.108Z,2.05
2019-03-08T00:21:18.835Z,2.20
2019-03-08T00:23:48.333Z,1.85
2019-03-08T00:26:17.769Z,2.00
2019-03-08T00:28:47.208Z,2.00
2019-03-08T00:31:16.592Z,2.30
2019-03-08T00:33:45.992Z,1.80
2019-03-08T00:36:15.392Z,2.00
2019-03-08T00:38:44.956Z,1.82
2019-03-08T00:41:14.394Z,1.85
2019-03-08T00:43:43.948Z,1.82
2019-03-08T00:46:13.524Z,2.00
2019-03-08T00:48:42.961Z,1.90
2019-03-08T00:51:12.376Z,1.77
2019-03-08T00:53:41.772Z,2.02
2019-03-08T00:56:11.336Z,1.92
2019-03-08T00:58:40.861Z,2.10
2019-03-08T01:01:10.343Z,1.85
2019-03-08T01:03:39.964Z,2.60
2019-03-08T01:06:09.348Z,2.30
2019-03-08T01:08:39.031Z,2.37
2019-03-08T01:11:08.564Z,2.90
2019-03-08T01:13:37.994Z,2.80
2019-03-08T01:16:07.625Z,3.00
2019-03-08T01:18:37.041Z,2.85
2019-03-08T01:21:06.459Z,3.13
2019-03-08T01:23:35.827Z,3.58
2019-03-08T01:26:06.118Z,3.17
2019-03-08T01:28:36.916Z,3.75
2019-03-08T01:31:06.705Z,2.87
2019-03-08T01:33:36.220Z,2.90
2019-03-08T01:36:05.756Z,2.80
2019-03-08T01:38:35.254Z,2.80
2019-03-08T01:41:04.734Z,2.10
2019-03-08T01:43:34.461Z,2.10
2019-03-08T01:46:03.991Z,2.50
2019-03-08T01:48:33.541Z,2.30
2019-03-08T01:51:09.161Z,2.12
2019-03-08T01:53:44.572Z,1.72
2019-03-08T01:56:13.956Z,1.60
2019-03-08T01:58:43.361Z,1.53
2019-03-08T02:01:12.820Z,1.62
2019-03-08T02:03:42.303Z,1.67
2019-03-08T02:06:11.864Z,1.72
2019-03-08T02:08:42.924Z,1.90
2019-03-08T02:11:12.393Z,1.98
2019-03-08T02:13:41.949Z,1.85
2019-03-08T02:16:11.424Z,2.33
2019-03-08T02:18:41.008Z,2.30
2019-03-08T02:21:10.475Z,2.67
2019-03-08T02:23:39.946Z,2.47
2019-03-08T02:26:09.382Z,2.30
2019-03-08T02:28:38.916Z,2.67
2019-03-08T02:31:08.553Z,2.70
2019-03-08T02:33:38.068Z,2.98
2019-03-08T02:36:07.517Z,3.08
2019-03-08T02:38:36.951Z,3.02
2019-03-08T02:41:06.316Z,3.15
2019-03-08T02:43:35.796Z,3.40
2019-03-08T02:46:05.219Z,3.27
2019-03-08T02:48:34.714Z,3.25
2019-03-08T02:51:04.226Z,3.30
2019-03-08T02:53:33.696Z,3.10
2019-03-08T02:56:03.176Z,3.72
2019-03-08T02:58:32.715Z,3.40
2019-03-08T03:01:02.364Z,3.02
2019-03-08T03:03:32.212Z,3.00
2019-03-08T03:06:01.673Z,3.17
2019-03-08T03:08:31.241Z,2.83
2019-03-08T03:11:00.806Z,3.15
2019-03-08T03:13:30.293Z,2.77
2019-03-08T03:15:59.795Z,3.35
2019-03-08T03:18:36.005Z,2.67
2019-03-08T03:21:05.483Z,3.52
2019-03-08T03:23:35.027Z,3.02
2019-03-08T03:26:04.482Z,2.95
2019-03-08T03:28:33.851Z,3.10
2019-03-08T03:31:03.334Z,2.83
2019-03-08T03:33:32.864Z,2.80
2019-03-08T03:36:02.313Z,2.85
2019-03-08T03:38:31.755Z,3.08
2019-03-08T03:41:01.252Z,2.62
2019-03-08T03:43:31.010Z,3.30
2019-03-08T03:46:00.853Z,3.00
2019-03-08T03:48:30.453Z,3.15
2019-03-08T03:50:59.975Z,2.95
2019-03-08T03:53:29.428Z,3.20
2019-03-08T03:55:58.912Z,3.50
2019-03-08T03:58:28.339Z,3.55
2019-03-08T04:00:57.898Z,3.98
2019-03-08T04:03:27.374Z,3.30
2019-03-08T04:05:56.835Z,3.20
2019-03-08T04:08:26.309Z,3.58
2019-03-08T04:10:56.031Z,3.17
2019-03-08T04:13:25.383Z,3.40
2019-03-08T04:15:55.731Z,3.58
2019-03-08T04:18:25.191Z,3.42
2019-03-08T04:20:54.778Z,3.77
2019-03-08T04:23:24.253Z,3.55
2019-03-08T04:25:53.704Z,3.80
2019-03-08T04:28:23.170Z,4.37
2019-03-08T04:30:52.657Z,4.28
2019-03-08T04:33:22.161Z,3.70
2019-03-08T04:35:53.865Z,4.37
2019-03-08T04:38:23.576Z,4.50
2019-03-08T04:40:53.074Z,5.12
2019-03-08T04:43:22.456Z,4.93
2019-03-08T04:45:51.853Z,4.80
2019-03-08T04:48:21.362Z,4.65
2019-03-08T04:50:50.876Z,4.58
2019-03-08T04:53:20.337Z,4.67
2019-03-08T04:55:49.837Z,4.73
2019-03-08T04:58:19.356Z,5.12
2019-03-08T05:00:48.840Z,5.03
2019-03-08T05:03:18.359Z,4.53
2019-03-08T05:05:48.103Z,3.95
2019-03-08T05:08:17.529Z,3.85
2019-03-08T05:10:47.251Z,4.10
2019-03-08T05:13:17.106Z,4.30
2019-03-08T05:15:46.882Z,4.58
2019-03-08T05:18:16.964Z,4.17
2019-03-08T05:20:47.338Z,4.50
2019-03-08T05:23:17.143Z,5.05
2019-03-08T05:25:46.748Z,4.92
2019-03-08T05:28:16.174Z,5.78
2019-03-08T05:30:45.683Z,6.05
2019-03-08T05:33:15.542Z,5.47
2019-03-08T05:35:45.178Z,5.22
2019-03-08T05:38:14.770Z,6.47
2019-03-08T05:40:44.433Z,5.33
2019-03-08T05:43:13.908Z,5.85
2019-03-08T05:45:43.634Z,5.53
2019-03-08T05:48:13.489Z,4.92
2019-03-08T05:50:43.261Z,4.47
2019-03-08T05:53:13.383Z,6.08
2019-03-08T05:55:43.152Z,6.17
2019-03-08T05:58:12.736Z,4.97
2019-03-08T06:00:42.388Z,5.33
2019-03-08T06:03:12.071Z,5.55
2019-03-08T06:05:41.774Z,4.15
2019-03-08T06:08:11.451Z,3.33
2019-03-08T06:10:41.108Z,3.72
2019-03-08T06:13:11.047Z,3.25
2019-03-08T06:15:41.517Z,3.45
2019-03-08T06:18:11.224Z,3.87
2019-03-08T06:20:41.153Z,3.70
2019-03-08T06:23:11.057Z,2.85
2019-03-08T06:25:41.782Z,2.75
2019-03-08T06:28:11.617Z,3.40
2019-03-08T06:30:41.281Z,3.90
2019-03-08T06:33:10.956Z,3.98
2019-03-08T06:35:40.929Z,2.67
2019-03-08T06:38:10.826Z,2.30
2019-03-08T06:40:40.529Z,2.47
2019-03-08T06:43:14.001Z,3.42
2019-03-08T06:45:43.454Z,3.40
2019-03-08T06:48:12.872Z,4.30
2019-03-08T06:50:42.271Z,6.20
2019-03-08T06:53:11.593Z,5.60
2019-03-08T06:55:41.036Z,5.20
2019-03-08T06:58:10.561Z,5.87
2019-03-08T07:00:58.282Z,9.48
2019-03-08T07:03:27.809Z,9.03
2019-03-08T07:05:57.243Z,7.58
2019-03-08T07:08:26.818Z,6.58
2019-03-08T07:10:56.184Z,7.30
2019-03-08T07:13:25.607Z,7.20
2019-03-08T07:15:54.989Z,7.83
2019-03-08T07:18:24.400Z,6.78
2019-03-08T07:21:17.298Z,6.97
2019-03-08T07:24:05.682Z,8.10
2019-03-08T07:27:03.145Z,7.05
2019-03-08T07:29:49.934Z,8.23
2019-03-08T07:32:36.811Z,7.72
2019-03-08T07:35:25.290Z,6.50
2019-03-08T07:38:25.525Z,7.60
2019-03-08T07:41:13.819Z,6.80
2019-03-08T07:44:00.751Z,9.60
2019-03-08T07:46:41.393Z,5.80
2019-03-08T07:49:22.480Z,6.03
2019-03-08T07:52:01.930Z,6.85
2019-03-08T07:55:02.245Z,5.20
2019-03-08T07:58:08.499Z,5.20
2019-03-08T08:01:11.819Z,4.92
2019-03-08T08:04:00.149Z,3.87
2019-03-08T08:06:35.477Z,3.87
2019-03-08T08:09:12.631Z,4.60
2019-03-08T08:12:06.947Z,3.50
2019-03-08T08:14:46.456Z,3.42
2019-03-08T08:17:22.296Z,3.37
2019-03-08T08:20:16.841Z,3.98
2019-03-08T08:23:03.547Z,3.72
2019-03-08T08:25:51.954Z,4.22
2019-03-08T08:28:56.091Z,3.83
2019-03-08T08:31:41.007Z,3.80
2019-03-08T08:34:16.564Z,5.05
2019-03-08T08:37:03.754Z,4.62
2019-03-08T08:39:50.533Z,4.75
2019-03-08T08:42:27.663Z,5.70
2019-03-08T08:45:12.382Z,5.30
2019-03-08T08:47:58.097Z,5.30
2019-03-08T08:50:47.644Z,5.03
2019-03-08T08:53:33.049Z,5.28
2019-03-08T08:56:21.355Z,6.92
2019-03-08T08:59:09.840Z,6.00
2019-03-08T09:02:04.383Z,5.90
2019-03-08T09:04:52.687Z,5.72
2019-03-08T09:07:41.037Z,6.62
2019-03-08T09:10:32.635Z,6.70
2019-03-08T09:13:12.995Z,5.83
2019-03-08T09:15:51.869Z,6.65
2019-03-08T09:18:46.124Z,6.57
2019-03-08T09:21:53.892Z,5.12
2019-03-08T09:24:42.450Z,5.17
2019-03-08T09:27:29.375Z,5.15
2019-03-08T09:30:20.437Z,5.17
2019-03-08T09:33:07.488Z,4.10
2019-03-08T09:36:02.091Z,6.00
2019-03-08T09:38:49.490Z,5.08
2019-03-08T09:41:43.821Z,4.75
2019-03-08T09:44:34.976Z,5.47
2019-03-08T09:47:22.352Z,5.50
2019-03-08T09:50:09.430Z,5.37
2019-03-08T09:53:00.561Z,6.12
2019-03-08T09:55:49.344Z,4.97
2019-03-08T09:58:37.712Z,4.97
2019-03-08T10:01:44.427Z,5.15
2019-03-08T10:04:23.670Z,4.62
2019-03-08T10:07:07.795Z,5.53
2019-03-08T10:09:54.769Z,5.58
2019-03-08T10:12:46.502Z,5.07
2019-03-08T10:15:33.854Z,5.28
2019-03-08T10:18:34.754Z,5.00
2019-03-08T10:21:29.925Z,5.12
2019-03-08T10:24:07.596Z,5.00
2019-03-08T10:26:55.128Z,5.00
2019-03-08T10:29:55.807Z,4.50
2019-03-08T10:32:50.295Z,4.80
2019-03-08T10:35:37.350Z,3.73
2019-03-08T10:38:22.303Z,3.02
2019-03-08T10:41:03.946Z,2.90
2019-03-08T10:43:58.524Z,3.67
2019-03-08T10:46:56.247Z,3.22
2019-03-08T10:49:54.901Z,3.10
2019-03-08T10:52:25.700Z,3.35
2019-03-08T10:55:03.534Z,2.67
2019-03-08T10:57:54.942Z,3.00
2019-03-08T11:00:43.546Z,2.90
2019-03-08T11:03:21.271Z,4.00
2019-03-08T11:06:08.163Z,3.60
2019-03-08T11:08:57.477Z,3.92
2019-03-08T11:11:48.920Z,3.97
2019-03-08T11:14:55.347Z,3.75
2019-03-08T11:17:50.297Z,4.60
2019-03-08T11:20:34.208Z,3.98
2019-03-08T11:23:11.060Z,4.55
2019-03-08T11:26:14.553Z,4.62
2019-03-08T11:29:07.615Z,4.75
2019-03-08T11:31:49.033Z,3.25
2019-03-08T11:34:52.352Z,3.55
2019-03-08T11:37:51.749Z,3.10
2019-03-08T11:40:40.413Z,3.20
2019-03-08T11:43:17.056Z,3.10
2019-03-08T11:45:57.790Z,3.12
2019-03-08T11:48:49.070Z,3.23
2019-03-08T11:51:36.052Z,3.42
2019-03-08T11:54:12.619Z,3.40
2019-03-08T11:57:04.017Z,3.60
2019-03-08T12:00:01.421Z,3.27
2019-03-08T12:02:52.940Z,3.37
2019-03-08T12:05:44.508Z,3.40
2019-03-08T12:08:32.843Z,3.67
2019-03-08T12:11:35.411Z,3.55
2019-03-08T12:14:20.619Z,3.47
2019-03-08T12:17:12.725Z,3.42
2019-03-08T12:20:01.130Z,3.92
2019-03-08T12:22:55.802Z,3.30
2019-03-08T12:25:37.177Z,4.30
2019-03-08T12:28:31.783Z,3.62
2019-03-08T12:31:15.418Z,4.25
2019-03-08T12:34:03.761Z,4.50
2019-03-08T12:36:58.017Z,4.50
2019-03-08T12:39:45.320Z,4.28
2019-03-08T12:42:32.263Z,3.52
2019-03-08T12:45:12.628Z,4.62
2019-03-08T12:47:56.764Z,4.45
2019-03-08T12:50:45.087Z,4.28
2019-03-08T12:53:31.812Z,4.07
2019-03-08T12:56:06.751Z,4.12
2019-03-08T12:58:55.112Z,4.00
2019-03-08T13:01:35.801Z,4.33
2019-03-08T13:04:24.163Z,4.22
2019-03-08T13:07:11.234Z,3.77
2019-03-08T13:09:49.927Z,4.47
2019-03-08T13:12:19.687Z,3.98
2019-03-08T13:14:49.145Z,3.22
2019-03-08T13:17:18.879Z,3.75
2019-03-08T13:19:48.401Z,3.70
2019-03-08T13:22:17.828Z,3.85
2019-03-08T13:24:47.234Z,3.83
2019-03-08T13:27:16.649Z,3.80
2019-03-08T13:29:46.040Z,4.55
2019-03-08T13:32:15.474Z,3.57
2019-03-08T13:34:44.892Z,3.50
2019-03-08T13:37:14.257Z,4.50
2019-03-08T13:39:43.589Z,3.80
2019-03-08T13:42:13.024Z,3.72
2019-03-08T13:44:42.448Z,3.27
2019-03-08T13:47:11.852Z,4.10
2019-03-08T13:49:41.217Z,3.40
2019-03-08T13:52:10.787Z,2.70
2019-03-08T13:54:40.405Z,3.22
2019-03-08T13:57:10.007Z,3.55
2019-03-08T13:59:39.857Z,3.20
2019-03-08T14:02:09.360Z,3.00
2019-03-08T14:04:38.790Z,3.65
2019-03-08T14:07:08.400Z,3.95
2019-03-08T14:09:37.831Z,3.65
2019-03-08T14:12:07.662Z,3.75
2019-03-08T14:14:37.148Z,3.17
2019-03-08T14:17:06.742Z,3.15
2019-03-08T14:19:36.277Z,3.00
2019-03-08T14:22:05.829Z,3.85
2019-03-08T14:24:35.450Z,2.62
2019-03-08T14:27:05.433Z,3.35
2019-03-08T14:29:34.948Z,3.95
2019-03-08T14:32:08.146Z,3.33
2019-03-08T14:34:37.669Z,3.40
2019-03-08T14:37:07.173Z,2.85
2019-03-08T14:39:40.425Z,3.17
2019-03-08T14:42:41.627Z,3.45
2019-03-08T14:45:36.530Z,3.27
2019-03-08T15:11:25.189Z,2.90
2019-03-08T15:13:58.034Z,2.87
2019-03-08T15:16:26.848Z,2.67
2019-03-08T15:18:56.801Z,2.70
2019-03-08T15:21:26.741Z,2.25
2019-03-08T15:23:56.836Z,3.10
2019-03-08T15:26:26.655Z,2.65
2019-03-08T15:28:56.655Z,2.95
2019-03-08T15:31:36.345Z,2.92
2019-03-08T15:34:06.163Z,2.83
2019-03-08T15:36:36.033Z,2.90
2019-03-08T15:39:06.950Z,2.80
2019-03-08T15:41:36.502Z,3.53
2019-03-08T15:44:12.731Z,2.55
2019-03-08T15:46:42.458Z,3.12
2019-03-08T15:49:11.989Z,2.55
2019-03-08T15:51:41.371Z,2.75
2019-03-08T15:54:10.907Z,2.60
2019-03-08T15:56:40.423Z,3.00
2019-03-08T15:59:09.970Z,2.72
2019-03-08T16:01:39.459Z,2.70
2019-03-08T16:04:12.142Z,2.70
2019-03-08T16:06:43.699Z,2.00
2019-03-08T16:09:11.280Z,1.98
2019-03-08T16:11:40.757Z,2.30
2019-03-08T16:14:10.238Z,2.83
2019-03-08T16:16:39.758Z,2.77
2019-03-08T16:19:09.192Z,2.20
2019-03-08T16:21:38.609Z,2.40
2019-03-08T16:24:08.148Z,3.00
2019-03-08T16:26:37.639Z,3.50
2019-03-08T16:29:07.175Z,4.05
2019-03-08T16:31:59.850Z,4.08
2019-03-08T16:34:29.280Z,6.25
2019-03-08T16:37:03.286Z,7.30
2019-03-08T16:39:51.400Z,4.40
2019-03-08T16:42:35.666Z,4.60
2019-03-08T16:45:22.578Z,5.58
2019-03-08T16:48:29.063Z,4.20
2019-03-08T16:51:20.050Z,4.15
2019-03-08T16:54:04.410Z,3.58
2019-03-08T16:57:04.707Z,3.12
2019-03-08T16:59:59.331Z,3.47
2019-03-08T17:02:57.110Z,3.42
2019-03-08T17:05:44.354Z,3.05
2019-03-08T17:08:36.037Z,3.07
2019-03-08T17:11:30.746Z,3.00
2019-03-08T17:14:09.807Z,3.23
2019-03-08T17:16:45.917Z,4.55
2019-03-08T17:19:27.749Z,3.58
2019-03-08T17:22:15.026Z,3.40
2019-03-08T17:24:57.900Z,3.20
2019-03-08T17:28:04.965Z,3.23
2019-03-08T17:30:52.224Z,3.65
2019-03-08T17:33:46.376Z,3.75
2019-03-08T17:36:31.717Z,4.37
2019-03-08T17:39:06.899Z,4.30
2019-03-08T17:41:55.235Z,4.60
2019-03-08T17:44:47.185Z,4.40
2019-03-08T17:47:42.889Z,5.60
2019-03-08T17:50:47.291Z,4.33
2019-03-08T17:53:34.813Z,3.25
2019-03-08T17:56:30.845Z,3.60
2019-03-08T17:59:15.713Z,2.85
2019-03-08T18:02:10.817Z,2.85
2019-03-08T18:04:56.925Z,3.58
2019-03-08T18:07:44.136Z,3.57
2019-03-08T18:10:44.766Z,3.70
2019-03-08T18:13:48.742Z,4.15
2019-03-08T18:16:26.743Z,3.77
2019-03-08T18:19:15.221Z,3.30
2019-03-08T18:21:53.877Z,2.72
2019-03-08T18:24:54.851Z,2.22
2019-03-08T18:27:49.518Z,2.17
2019-03-08T18:30:38.056Z,2.25
2019-03-08T18:33:23.038Z,2.62
2019-03-08T18:35:59.378Z,2.20
2019-03-08T18:39:03.477Z,2.80
2019-03-08T18:41:51.110Z,2.85
2019-03-08T18:44:49.015Z,3.02
2019-03-08T18:47:36.687Z,2.90
2019-03-08T18:50:38.643Z,3.70
2019-03-08T18:53:33.460Z,3.50
2019-03-08T18:56:15.370Z,3.55
2019-03-08T18:59:04.090Z,4.05
2019-03-08T19:01:51.385Z,3.85
2019-03-08T19:04:39.054Z,4.30
2019-03-08T19:07:26.602Z,4.80
2019-03-08T19:10:07.743Z,4.40
2019-03-08T19:12:55.984Z,4.45
2019-03-08T19:15:56.830Z,5.50
2019-03-08T19:18:56.880Z,5.55
2019-03-08T19:21:40.430Z,6.12
2019-03-08T19:24:32.616Z,5.65
2019-03-08T19:27:19.838Z,6.67
2019-03-08T19:30:07.230Z,7.85
2019-03-08T19:32:47.149Z,6.05
2019-03-08T19:35:24.601Z,6.72
2019-03-08T19:38:13.317Z,6.72
2019-03-08T19:41:17.002Z,6.50
2019-03-08T19:43:58.449Z,6.12
2019-03-08T19:46:49.656Z,5.80
2019-03-08T19:49:40.851Z,5.50
2019-03-08T19:52:28.950Z,5.53
2019-03-08T19:55:06.829Z,4.85
2019-03-08T19:58:07.769Z,5.70
2019-03-08T20:01:02.720Z,5.62
2019-03-08T20:04:00.052Z,5.80
2019-03-08T20:06:47.422Z,5.95
2019-03-08T20:09:35.498Z,5.72
2019-03-08T20:12:13.874Z,6.47
2019-03-08T20:15:11.499Z,6.65
2019-03-08T20:18:03.728Z,7.42
2019-03-08T20:20:52.329Z,7.65
2019-03-08T20:23:43.549Z,7.08
2019-03-08T20:26:26.076Z,7.22
2019-03-08T20:29:06.612Z,6.73
2019-03-08T20:31:58.285Z,7.10
2019-03-08T20:34:40.274Z,7.10
2019-03-08T20:37:38.312Z,7.40
2019-03-08T20:40:20.795Z,7.35
2019-03-08T20:42:57.418Z,8.00
2019-03-08T20:45:40.959Z,7.92
2019-03-08T20:48:10.429Z,7.80
2019-03-08T20:50:39.957Z,7.58
2019-03-08T20:53:09.497Z,6.75
2019-03-08T20:55:39.004Z,6.92
2019-03-08T20:58:08.679Z,7.35
2019-03-08T21:00:38.594Z,8.10
2019-03-08T21:03:08.202Z,8.60
2019-03-08T21:05:37.740Z,8.18
2019-03-08T21:08:07.320Z,7.75
2019-03-08T21:10:36.779Z,7.83
2019-03-08T21:13:06.320Z,8.30
2019-03-08T21:15:35.925Z,8.58
2019-03-08T21:18:05.484Z,7.57
2019-03-08T21:20:35.148Z,8.50
2019-03-08T21:23:04.614Z,8.45
2019-03-08T21:25:34.079Z,7.60
2019-03-08T21:28:03.694Z,8.35
2019-03-08T21:30:33.287Z,8.20
2019-03-08T21:33:02.843Z,7.72
2019-03-08T21:35:32.519Z,7.20
2019-03-08T21:38:02.063Z,7.05
2019-03-08T21:40:31.605Z,7.33
2019-03-08T21:43:01.201Z,7.87
2019-03-08T21:45:30.746Z,6.62
2019-03-08T21:48:00.358Z,7.33
2019-03-08T21:50:29.790Z,5.77
2019-03-08T21:52:59.395Z,6.55
2019-03-08T21:55:28.972Z,5.95
2019-03-08T21:57:58.593Z,6.55
2019-03-08T22:00:28.220Z,5.63
2019-03-08T22:02:57.700Z,5.97
2019-03-08T22:05:30.189Z,6.15
2019-03-08T22:08:00.798Z,5.95
2019-03-08T22:10:48.372Z,5.97
2019-03-08T22:13:17.844Z,5.50
2019-03-08T22:15:47.376Z,6.00
2019-03-08T22:18:16.832Z,5.60
2019-03-08T22:20:46.304Z,5.80
2019-03-08T22:23:15.764Z,5.67
2019-03-08T22:25:45.375Z,5.53
2019-03-08T22:28:14.836Z,5.25
2019-03-08T22:30:44.317Z,5.05
2019-03-08T22:33:13.807Z,5.55
2019-03-08T22:35:43.388Z,6.17
2019-03-08T22:38:12.782Z,6.20
2019-03-08T22:40:42.239Z,5.25
2019-03-08T22:43:11.755Z,5.60
2019-03-08T22:45:41.292Z,6.25
2019-03-08T22:48:10.885Z,5.22
2019-03-08T22:50:40.415Z,5.45
2019-03-08T22:53:10.157Z,5.58
2019-03-08T22:55:39.619Z,5.53
2019-03-08T22:58:09.151Z,5.17
2019-03-08T23:01:06.018Z,5.28
2019-03-08T23:03:35.698Z,5.87
2019-03-08T23:06:05.752Z,5.28
2019-03-08T23:08:35.215Z,6.45
2019-03-08T23:11:04.802Z,5.35
2019-03-08T23:13:38.061Z,5.60
2019-03-08T23:16:05.478Z,5.15
2019-03-08T23:18:34.922Z,5.27
2019-03-08T23:21:04.386Z,5.53
2019-03-08T23:23:34.081Z,4.25
2019-03-08T23:26:03.553Z,3.98
2019-03-08T23:28:49.187Z,4.00
2019-03-08T23:31:31.660Z,4.47
2019-03-08T23:34:02.787Z,4.40
2019-03-08T23:36:32.493Z,4.30
2019-03-08T23:39:02.022Z,4.60
2019-03-08T23:41:31.586Z,5.15
2019-03-08T23:44:01.103Z,4.87
2019-03-08T23:46:30.554Z,5.37
2019-03-08T23:49:00.016Z,5.20
2019-03-08T23:51:29.546Z,5.45
2019-03-08T23:53:58.955Z,5.67
2019-03-08T23:56:28.439Z,5.05
2019-03-08T23:58:58.032Z,4.90
